createdAt,value
2019-01-18T00:28:14.920Z,0.28
2019-01-18T00:28:15.495Z,0.27
2019-01-18T00:28:16.102Z,0.25
2019-01-18T00:28:16.694Z,0.30
2019-01-18T00:28:17.293Z,0.33
2019-01-18T00:28:17.893Z,0.34
2019-01-18T00:28:18.493Z,0.33
2019-01-18T00:28:19.093Z,0.34
2019-01-18T00:29:12.575Z,0.33
2019-01-18T00:29:13.147Z,0.42
2019-01-18T00:29:13.747Z,0.34
2019-01-18T00:29:14.346Z,0.38
2019-01-18T00:29:14.945Z,0.33
2019-01-18T00:29:15.546Z,0.38
2019-01-18T00:29:16.145Z,0.39
2019-01-18T00:29:16.744Z,0.39
2019-01-18T00:30:10.226Z,0.43
2019-01-18T00:30:10.799Z,0.39
2019-01-18T00:30:11.399Z,0.46
2019-01-18T00:30:11.998Z,0.48
2019-01-18T00:30:12.601Z,0.49
2019-01-18T00:30:13.199Z,0.49
2019-01-18T00:30:13.800Z,0.43
2019-01-18T00:30:14.397Z,0.45
2019-01-18T00:31:08.908Z,0.46
2019-01-18T00:31:09.473Z,0.41
2019-01-18T00:31:10.073Z,0.51
2019-01-18T00:31:10.674Z,0.39
2019-01-18T00:31:11.278Z,0.43
2019-01-18T00:31:11.873Z,0.41
2019-01-18T00:31:12.474Z,0.42
2019-01-18T00:31:13.073Z,0.46
2019-01-18T00:32:06.556Z,0.52
2019-01-18T00:32:07.129Z,0.52
2019-01-18T00:32:07.728Z,0.62
2019-01-18T00:32:08.326Z,0.58
2019-01-18T00:32:08.927Z,0.61
2019-01-18T00:32:09.526Z,0.58
2019-01-18T00:32:10.126Z,0.58
2019-01-18T00:32:10.725Z,0.57
2019-01-18T00:33:04.206Z,0.62
2019-01-18T00:33:04.780Z,0.58
2019-01-18T00:33:05.380Z,0.51
2019-01-18T00:33:05.982Z,0.67
2019-01-18T00:33:06.582Z,0.51
2019-01-18T00:33:07.179Z,0.60
2019-01-18T00:33:07.779Z,0.60
2019-01-18T00:33:08.378Z,0.62
2019-01-18T00:34:02.884Z,0.61
2019-01-18T00:34:03.455Z,0.60
2019-01-18T00:34:04.055Z,0.61
2019-01-18T00:34:04.655Z,0.60
2019-01-18T00:34:05.257Z,0.58
2019-01-18T00:34:05.854Z,0.61
2019-01-18T00:34:06.455Z,0.64
2019-01-18T00:34:07.054Z,0.64
2019-01-18T00:35:00.537Z,0.75
2019-01-18T00:35:01.109Z,0.62
2019-01-18T00:35:01.710Z,0.70
2019-01-18T00:35:02.308Z,0.75
2019-01-18T00:35:02.908Z,0.71
2019-01-18T00:35:03.507Z,0.76
2019-01-18T00:35:04.108Z,0.70
2019-01-18T00:35:04.707Z,0.71
2019-01-18T00:35:59.210Z,0.78
2019-01-18T00:35:59.785Z,0.78
2019-01-18T00:36:00.384Z,0.78
2019-01-18T00:36:00.982Z,0.85
2019-01-18T00:36:01.584Z,0.79
2019-01-18T00:36:02.182Z,0.80
2019-01-18T00:36:02.783Z,0.76
2019-01-18T00:36:03.383Z,0.80
2019-01-18T00:36:56.864Z,0.76
2019-01-18T00:36:57.436Z,0.82
2019-01-18T00:36:58.037Z,0.75
2019-01-18T00:36:58.638Z,0.76
2019-01-18T00:36:59.236Z,0.82
2019-01-18T00:36:59.835Z,0.78
2019-01-18T00:37:00.436Z,0.85
2019-01-18T00:37:01.034Z,0.75
2019-01-18T00:37:54.515Z,0.89
2019-01-18T00:37:55.088Z,0.80
2019-01-18T00:37:55.689Z,0.90
2019-01-18T00:37:56.288Z,0.79
2019-01-18T00:37:56.887Z,0.80
2019-01-18T00:37:57.488Z,0.86
2019-01-18T00:37:58.086Z,0.88
2019-01-18T00:37:58.687Z,0.78
2019-01-18T00:38:53.194Z,0.83
2019-01-18T00:38:53.762Z,0.82
2019-01-18T00:38:54.362Z,0.90
2019-01-18T00:38:54.961Z,0.80
2019-01-18T00:38:55.562Z,0.82
2019-01-18T00:38:56.161Z,0.83
2019-01-18T00:38:56.759Z,0.82
2019-01-18T00:38:57.359Z,0.88
2019-01-18T00:39:50.843Z,0.76
2019-01-18T00:39:51.416Z,0.88
2019-01-18T00:39:52.015Z,0.83
2019-01-18T00:39:52.618Z,0.80
2019-01-18T00:39:53.214Z,0.79
2019-01-18T00:39:53.814Z,0.80
2019-01-18T00:39:54.418Z,0.83
2019-01-18T00:39:55.016Z,0.82
2019-01-18T00:40:48.494Z,0.92
2019-01-18T00:40:49.068Z,0.90
2019-01-18T00:40:49.667Z,0.94
2019-01-18T00:40:50.269Z,0.80
2019-01-18T00:40:50.866Z,0.92
2019-01-18T00:40:51.468Z,0.90
2019-01-18T00:40:52.066Z,0.89
2019-01-18T00:40:52.667Z,0.94
2019-01-18T00:41:46.145Z,0.92
2019-01-18T00:41:46.720Z,0.94
2019-01-18T00:41:47.319Z,0.92
2019-01-18T00:41:47.920Z,1.01
2019-01-18T00:41:48.518Z,1.01
2019-01-18T00:41:49.122Z,0.94
2019-01-18T00:41:49.718Z,0.97
2019-01-18T00:41:50.323Z,0.96
2019-01-18T00:42:44.822Z,1.10
2019-01-18T00:42:45.395Z,1.04
2019-01-18T00:42:45.994Z,1.01
2019-01-18T00:42:46.594Z,0.96
2019-01-18T00:42:47.193Z,1.04
2019-01-18T00:42:47.794Z,1.01
2019-01-18T00:42:48.394Z,0.96
2019-01-18T00:42:48.994Z,0.98
2019-01-18T00:43:42.474Z,1.01
2019-01-18T00:43:43.046Z,1.08
2019-01-18T00:43:43.646Z,1.01
2019-01-18T00:43:44.246Z,0.98
2019-01-18T00:43:44.850Z,1.00
2019-01-18T00:43:45.446Z,1.00
2019-01-18T00:43:46.045Z,0.94
2019-01-18T00:43:46.646Z,1.08
2019-01-18T00:44:41.150Z,1.15
2019-01-18T00:44:41.722Z,1.04
2019-01-18T00:44:42.323Z,1.14
2019-01-18T00:44:42.921Z,1.14
2019-01-18T00:44:43.522Z,1.08
2019-01-18T00:44:44.121Z,1.18
2019-01-18T00:44:44.721Z,1.16
2019-01-18T00:44:45.322Z,1.15
2019-01-18T00:45:39.826Z,1.12
2019-01-18T00:45:40.397Z,1.06
2019-01-18T00:45:40.998Z,1.08
2019-01-18T00:45:41.597Z,1.08
2019-01-18T00:45:42.197Z,1.15
2019-01-18T00:45:42.799Z,1.10
2019-01-18T00:45:43.396Z,1.07
2019-01-18T00:45:43.997Z,1.06
2019-01-18T00:46:37.478Z,1.19
2019-01-18T00:46:38.050Z,1.19
2019-01-18T00:46:38.649Z,1.24
2019-01-18T00:46:39.250Z,1.19
2019-01-18T00:46:39.850Z,1.21
2019-01-18T00:46:40.450Z,1.29
2019-01-18T00:46:41.048Z,1.19
2019-01-18T00:46:41.650Z,1.15
2019-01-18T00:47:35.129Z,1.26
2019-01-18T00:47:35.702Z,1.26
2019-01-18T00:47:36.301Z,1.19
2019-01-18T00:47:36.903Z,1.21
2019-01-18T00:47:37.502Z,1.25
2019-01-18T00:47:38.100Z,1.25
2019-01-18T00:47:38.701Z,1.21
2019-01-18T00:47:39.300Z,1.25
2019-01-18T00:48:33.803Z,1.28
2019-01-18T00:48:34.378Z,1.26
2019-01-18T00:48:34.981Z,1.29
2019-01-18T00:48:35.583Z,1.29
2019-01-18T00:48:36.174Z,1.26
2019-01-18T00:48:36.776Z,1.26
2019-01-18T00:48:37.374Z,1.26
2019-01-18T00:48:37.974Z,1.22
2019-01-18T00:49:31.456Z,1.26
2019-01-18T00:49:32.031Z,1.32
2019-01-18T00:49:32.629Z,1.32
2019-01-18T00:49:33.230Z,1.33
2019-01-18T00:49:33.829Z,1.32
2019-01-18T00:49:34.428Z,1.32
2019-01-18T00:49:35.031Z,1.34
2019-01-18T00:49:35.628Z,1.29
2019-01-18T00:50:30.133Z,1.40
2019-01-18T00:50:30.704Z,1.36
2019-01-18T00:50:31.304Z,1.39
2019-01-18T00:50:31.904Z,1.42
2019-01-18T00:50:32.504Z,1.42
2019-01-18T00:50:33.104Z,1.34
2019-01-18T00:50:33.704Z,1.44
2019-01-18T00:50:34.304Z,1.36
2019-01-18T00:51:28.807Z,1.46
2019-01-18T00:51:29.381Z,1.37
2019-01-18T00:51:29.980Z,1.44
2019-01-18T00:51:30.579Z,1.42
2019-01-18T00:51:31.180Z,1.39
2019-01-18T00:51:31.781Z,1.43
2019-01-18T00:51:32.379Z,1.39
2019-01-18T00:51:32.982Z,1.44
2019-01-18T00:52:26.459Z,1.44
2019-01-18T00:52:27.031Z,1.46
2019-01-18T00:52:27.631Z,1.47
2019-01-18T00:52:28.232Z,1.42
2019-01-18T00:52:28.832Z,1.47
2019-01-18T00:52:29.433Z,1.50
2019-01-18T00:52:30.032Z,1.44
2019-01-18T00:52:30.631Z,1.44
2019-01-18T00:53:24.114Z,1.50
2019-01-18T00:53:24.685Z,1.52
2019-01-18T00:53:25.285Z,1.47
2019-01-18T00:53:25.885Z,1.46
2019-01-18T00:53:26.484Z,1.55
2019-01-18T00:53:27.084Z,1.52
2019-01-18T00:53:27.685Z,1.44
2019-01-18T00:53:28.283Z,1.52
2019-01-18T00:54:22.790Z,1.60
2019-01-18T00:54:23.363Z,1.50
2019-01-18T00:54:23.959Z,1.61
2019-01-18T00:54:24.558Z,1.61
2019-01-18T00:54:25.160Z,1.55
2019-01-18T00:54:25.761Z,1.57
2019-01-18T00:54:26.358Z,1.57
2019-01-18T00:54:26.960Z,1.58
2019-01-18T00:55:20.440Z,1.54
2019-01-18T00:55:21.012Z,1.51
2019-01-18T00:55:21.612Z,1.55
2019-01-18T00:55:22.215Z,1.58
2019-01-18T00:55:22.812Z,1.55
2019-01-18T00:55:23.413Z,1.54
2019-01-18T00:55:24.012Z,1.58
2019-01-18T00:55:24.613Z,1.51
2019-01-18T00:56:18.093Z,1.62
2019-01-18T00:56:18.664Z,1.55
2019-01-18T00:56:19.266Z,1.51
2019-01-18T00:56:19.863Z,1.51
2019-01-18T00:56:20.465Z,1.54
2019-01-18T00:56:21.063Z,1.54
2019-01-18T00:56:21.663Z,1.60
2019-01-18T00:56:22.262Z,1.57
2019-01-18T00:57:17.183Z,1.62
2019-01-18T00:57:17.187Z,1.55
2019-01-18T00:57:17.241Z,1.54
2019-01-18T00:57:17.515Z,1.51
2019-01-18T00:57:18.113Z,1.62
2019-01-18T00:57:18.714Z,1.50
2019-01-18T00:57:19.319Z,1.65
2019-01-18T00:57:19.914Z,1.62
2019-01-18T00:58:14.418Z,1.60
2019-01-18T00:58:14.989Z,1.60
2019-01-18T00:58:15.589Z,1.62
2019-01-18T00:58:16.190Z,1.61
2019-01-18T00:58:16.790Z,1.64
2019-01-18T00:58:17.390Z,1.65
2019-01-18T00:58:17.988Z,1.68
2019-01-18T00:58:18.589Z,1.61
2019-01-18T00:59:12.071Z,1.64
2019-01-18T00:59:12.642Z,1.71
2019-01-18T00:59:13.243Z,1.69
2019-01-18T00:59:13.844Z,1.69
2019-01-18T00:59:14.441Z,1.68
2019-01-18T00:59:15.041Z,1.62
2019-01-18T00:59:15.642Z,1.62
2019-01-18T00:59:16.241Z,1.65
2019-01-18T01:00:09.722Z,1.65
2019-01-18T01:00:10.295Z,1.68
2019-01-18T01:00:10.895Z,1.65
2019-01-18T01:00:11.497Z,1.72
2019-01-18T01:00:12.097Z,1.71
2019-01-18T01:00:12.695Z,1.62
2019-01-18T01:00:13.294Z,1.72
2019-01-18T01:00:13.893Z,1.64
2019-01-18T01:01:08.396Z,1.62
2019-01-18T01:01:08.969Z,1.61
2019-01-18T01:01:09.569Z,1.61
2019-01-18T01:01:10.170Z,1.71
2019-01-18T01:01:10.772Z,1.65
2019-01-18T01:01:11.369Z,1.72
2019-01-18T01:01:11.967Z,1.65
2019-01-18T01:01:12.568Z,1.60
2019-01-18T01:02:06.051Z,1.61
2019-01-18T01:02:06.621Z,1.64
2019-01-18T01:02:07.222Z,1.62
2019-01-18T01:02:07.822Z,1.64
2019-01-18T01:02:08.421Z,1.68
2019-01-18T01:02:09.022Z,1.68
2019-01-18T01:02:09.623Z,1.62
2019-01-18T01:02:10.220Z,1.51
2019-01-18T01:03:03.702Z,1.69
2019-01-18T01:03:04.276Z,1.54
2019-01-18T01:03:04.874Z,1.60
2019-01-18T01:03:05.475Z,1.51
2019-01-18T01:03:06.073Z,1.64
2019-01-18T01:03:06.677Z,1.51
2019-01-18T01:03:07.273Z,1.62
2019-01-18T01:03:07.872Z,1.54
2019-01-18T01:04:01.352Z,1.54
2019-01-18T01:04:01.926Z,1.52
2019-01-18T01:04:02.525Z,1.52
2019-01-18T01:04:03.125Z,1.50
2019-01-18T01:04:03.730Z,1.54
2019-01-18T01:04:04.326Z,1.51
2019-01-18T01:04:04.925Z,1.57
2019-01-18T01:04:05.524Z,1.51
2019-01-18T01:05:00.028Z,1.55
2019-01-18T01:05:00.601Z,1.52
2019-01-18T01:05:01.202Z,1.58
2019-01-18T01:05:01.804Z,1.52
2019-01-18T01:05:02.399Z,1.51
2019-01-18T01:05:02.998Z,1.68
2019-01-18T01:05:03.599Z,1.52
2019-01-18T01:05:04.198Z,1.60
2019-01-18T01:05:58.702Z,1.50
2019-01-18T01:05:59.276Z,1.54
2019-01-18T01:05:59.876Z,1.55
2019-01-18T01:06:00.476Z,1.60
2019-01-18T01:06:01.076Z,1.54
2019-01-18T01:06:01.675Z,1.62
2019-01-18T01:06:02.274Z,1.58
2019-01-18T01:06:02.875Z,1.55
2019-01-18T01:06:56.356Z,1.57
2019-01-18T01:06:56.928Z,1.51
2019-01-18T01:06:57.529Z,1.54
2019-01-18T01:06:58.129Z,1.62
2019-01-18T01:06:58.731Z,1.57
2019-01-18T01:06:59.327Z,1.52
2019-01-18T01:06:59.927Z,1.58
2019-01-18T01:07:00.529Z,1.52
2019-01-18T01:07:55.031Z,1.57
2019-01-18T01:07:55.606Z,1.60
2019-01-18T01:07:56.203Z,1.58
2019-01-18T01:07:56.803Z,1.55
2019-01-18T01:07:57.403Z,1.60
2019-01-18T01:07:58.003Z,1.57
2019-01-18T01:07:58.604Z,1.61
2019-01-18T01:07:59.203Z,1.57
2019-01-18T01:08:52.682Z,1.52
2019-01-18T01:08:53.257Z,1.55
2019-01-18T01:08:53.856Z,1.61
2019-01-18T01:08:54.456Z,1.54
2019-01-18T01:08:55.057Z,1.58
2019-01-18T01:08:55.655Z,1.58
2019-01-18T01:08:56.254Z,1.61
2019-01-18T01:08:56.895Z,1.61
2019-01-18T01:09:50.337Z,1.52
2019-01-18T01:09:50.907Z,1.54
2019-01-18T01:09:51.508Z,1.57
2019-01-18T01:09:52.109Z,1.50
2019-01-18T01:09:52.707Z,1.47
2019-01-18T01:09:53.307Z,1.51
2019-01-18T01:09:53.908Z,1.46
2019-01-18T01:09:54.510Z,1.44
2019-01-18T01:10:49.009Z,1.43
2019-01-18T01:10:49.582Z,1.54
2019-01-18T01:10:50.183Z,1.55
2019-01-18T01:10:50.781Z,1.57
2019-01-18T01:10:51.381Z,1.50
2019-01-18T01:10:51.992Z,1.54
2019-01-18T01:10:52.581Z,1.51
2019-01-18T01:10:53.181Z,1.51
2019-01-18T01:11:46.662Z,1.50
2019-01-18T01:11:47.236Z,1.51
2019-01-18T01:11:47.835Z,1.47
2019-01-18T01:11:48.435Z,1.58
2019-01-18T01:11:49.034Z,1.47
2019-01-18T01:11:49.633Z,1.50
2019-01-18T01:11:50.233Z,1.51
2019-01-18T01:11:50.833Z,1.54
2019-01-18T01:12:44.313Z,1.43
2019-01-18T01:12:44.887Z,1.50
2019-01-18T01:12:45.486Z,1.51
2019-01-18T01:12:46.087Z,1.50
2019-01-18T01:12:46.690Z,1.50
2019-01-18T01:12:47.287Z,1.47
2019-01-18T01:12:47.887Z,1.50
2019-01-18T01:12:48.486Z,1.46
2019-01-18T01:13:41.966Z,1.50
2019-01-18T01:13:42.538Z,1.51
2019-01-18T01:13:43.139Z,1.43
2019-01-18T01:13:43.739Z,1.51
2019-01-18T01:13:44.340Z,1.47
2019-01-18T01:13:44.937Z,1.47
2019-01-18T01:13:45.537Z,1.47
2019-01-18T01:13:46.138Z,1.54
2019-01-18T01:14:40.640Z,1.46
2019-01-18T01:14:41.214Z,1.50
2019-01-18T01:14:41.812Z,1.50
2019-01-18T01:14:42.412Z,1.43
2019-01-18T01:14:43.013Z,1.43
2019-01-18T01:14:43.612Z,1.51
2019-01-18T01:14:44.212Z,1.47
2019-01-18T01:14:44.813Z,1.46
2019-01-18T01:15:39.315Z,1.46
2019-01-18T01:15:39.888Z,1.50
2019-01-18T01:15:40.494Z,1.47
2019-01-18T01:15:41.090Z,1.44
2019-01-18T01:15:41.688Z,1.40
2019-01-18T01:15:42.289Z,1.42
2019-01-18T01:15:42.890Z,1.50
2019-01-18T01:15:43.488Z,1.44
2019-01-18T01:16:37.994Z,1.42
2019-01-18T01:16:38.566Z,1.44
2019-01-18T01:16:39.165Z,1.43
2019-01-18T01:16:39.770Z,1.44
2019-01-18T01:16:40.366Z,1.47
2019-01-18T01:16:40.964Z,1.43
2019-01-18T01:16:41.563Z,1.44
2019-01-18T01:16:42.164Z,1.43
2019-01-18T01:17:36.670Z,1.37
2019-01-18T01:17:37.239Z,1.40
2019-01-18T01:17:37.839Z,1.44
2019-01-18T01:17:38.440Z,1.50
2019-01-18T01:17:39.039Z,1.39
2019-01-18T01:17:39.639Z,1.39
2019-01-18T01:17:40.239Z,1.44
2019-01-18T01:17:40.839Z,1.46
2019-01-18T01:18:35.343Z,1.42
2019-01-18T01:18:35.917Z,1.40
2019-01-18T01:18:36.516Z,1.42
2019-01-18T01:18:37.116Z,1.43
2019-01-18T01:18:37.715Z,1.44
2019-01-18T01:18:38.315Z,1.46
2019-01-18T01:18:38.918Z,1.40
2019-01-18T01:18:39.515Z,1.43
2019-01-18T01:19:34.019Z,1.25
2019-01-18T01:19:34.590Z,1.37
2019-01-18T01:19:35.190Z,1.32
2019-01-18T01:19:35.792Z,1.40
2019-01-18T01:19:36.390Z,1.34
2019-01-18T01:19:36.990Z,1.40
2019-01-18T01:19:37.589Z,1.37
2019-01-18T01:19:38.191Z,1.42
2019-01-18T01:20:33.205Z,1.33
2019-01-18T01:20:33.779Z,1.26
2019-01-18T01:20:34.379Z,1.29
2019-01-18T01:20:34.980Z,1.26
2019-01-18T01:20:35.578Z,1.37
2019-01-18T01:20:36.178Z,1.33
2019-01-18T01:20:36.781Z,1.37
2019-01-18T01:21:31.166Z,1.33
2019-01-18T01:21:31.740Z,1.32
2019-01-18T01:21:32.339Z,1.28
2019-01-18T01:21:32.941Z,1.28
2019-01-18T01:21:33.540Z,1.33
2019-01-18T01:21:34.138Z,1.29
2019-01-18T01:21:34.738Z,1.29
2019-01-18T01:21:35.339Z,1.32
2019-01-18T01:22:28.820Z,1.32
2019-01-18T01:22:29.391Z,1.33
2019-01-18T01:22:29.993Z,1.26
2019-01-18T01:22:30.590Z,1.26
2019-01-18T01:22:31.191Z,1.32
2019-01-18T01:22:31.791Z,1.26
2019-01-18T01:22:32.393Z,1.29
2019-01-18T01:22:32.990Z,1.29
2019-01-18T01:23:26.469Z,1.29
2019-01-18T01:23:27.042Z,1.26
2019-01-18T01:23:27.642Z,1.28
2019-01-18T01:23:28.241Z,1.28
2019-01-18T01:23:28.842Z,1.28
2019-01-18T01:23:29.442Z,1.24
2019-01-18T01:23:30.042Z,1.26
2019-01-18T01:23:30.640Z,1.34
2019-01-18T01:24:24.123Z,1.16
2019-01-18T01:24:24.699Z,1.24
2019-01-18T01:24:25.294Z,1.26
2019-01-18T01:24:25.896Z,1.21
2019-01-18T01:24:26.507Z,1.24
2019-01-18T01:24:27.093Z,1.18
2019-01-18T01:24:27.692Z,1.32
2019-01-18T01:24:28.294Z,1.32
2019-01-18T01:25:21.786Z,1.19
2019-01-18T01:25:22.362Z,1.25
2019-01-18T01:25:22.947Z,1.24
2019-01-18T01:25:23.546Z,1.29
2019-01-18T01:25:24.148Z,1.19
2019-01-18T01:25:24.744Z,1.25
2019-01-18T01:25:25.344Z,1.26
2019-01-18T01:25:25.944Z,1.25
2019-01-18T01:26:19.425Z,1.21
2019-01-18T01:26:19.998Z,1.18
2019-01-18T01:26:20.598Z,1.21
2019-01-18T01:26:21.197Z,1.10
2019-01-18T01:26:21.799Z,1.19
2019-01-18T01:26:22.397Z,1.19
2019-01-18T01:26:22.998Z,1.22
2019-01-18T01:26:23.602Z,1.21
2019-01-18T01:27:18.098Z,1.15
2019-01-18T01:27:18.673Z,1.06
2019-01-18T01:27:20.155Z,1.10
2019-01-18T01:27:20.636Z,1.15
2019-01-18T01:27:21.238Z,1.08
2019-01-18T01:27:21.833Z,1.10
2019-01-18T01:27:22.432Z,1.08
2019-01-18T01:28:15.958Z,1.15
2019-01-18T01:28:16.530Z,1.15
2019-01-18T01:28:17.131Z,1.08
2019-01-18T01:28:17.731Z,1.10
2019-01-18T01:28:18.330Z,1.15
2019-01-18T01:28:18.934Z,1.19
2019-01-18T01:28:19.531Z,1.07
2019-01-18T01:28:20.129Z,1.18
2019-01-18T01:29:13.610Z,1.08
2019-01-18T01:29:14.181Z,1.07
2019-01-18T01:29:14.782Z,1.08
2019-01-18T01:29:15.381Z,1.12
2019-01-18T01:29:15.982Z,1.16
2019-01-18T01:29:16.582Z,1.10
2019-01-18T01:29:17.180Z,1.06
2019-01-18T01:29:17.780Z,1.07
2019-01-18T01:30:11.260Z,1.10
2019-01-18T01:30:11.835Z,1.08
2019-01-18T01:30:12.432Z,1.06
2019-01-18T01:30:13.032Z,1.12
2019-01-18T01:30:13.635Z,1.15
2019-01-18T01:30:14.238Z,1.14
2019-01-18T01:30:14.833Z,1.08
2019-01-18T01:30:15.435Z,1.15
2019-01-18T01:31:09.935Z,1.03
2019-01-18T01:31:10.508Z,0.94
2019-01-18T01:31:11.107Z,1.14
2019-01-18T01:31:11.708Z,1.06
2019-01-18T01:31:12.308Z,1.08
2019-01-18T01:31:12.906Z,1.06
2019-01-18T01:31:13.506Z,1.03
2019-01-18T01:31:14.107Z,1.07
2019-01-18T01:32:07.587Z,1.03
2019-01-18T01:32:08.161Z,1.00
2019-01-18T01:32:08.762Z,1.01
2019-01-18T01:32:09.360Z,1.04
2019-01-18T01:32:09.962Z,1.08
2019-01-18T01:32:10.560Z,1.00
2019-01-18T01:32:11.159Z,1.00
2019-01-18T01:32:11.780Z,0.97
2019-01-18T01:33:05.332Z,0.98
2019-01-18T01:33:05.812Z,1.01
2019-01-18T01:33:06.412Z,1.00
2019-01-18T01:33:07.009Z,0.98
2019-01-18T01:33:07.611Z,0.96
2019-01-18T01:33:08.213Z,1.01
2019-01-18T01:33:08.809Z,0.97
2019-01-18T01:33:09.411Z,1.03
2019-01-18T01:34:02.890Z,1.03
2019-01-18T01:34:03.464Z,0.96
2019-01-18T01:34:04.066Z,1.07
2019-01-18T01:34:04.663Z,1.07
2019-01-18T01:34:05.265Z,1.00
2019-01-18T01:34:05.863Z,0.98
2019-01-18T01:34:06.462Z,1.01
2019-01-18T01:34:07.065Z,0.98
2019-01-18T01:35:00.543Z,0.98
2019-01-18T01:35:01.116Z,1.04
2019-01-18T01:35:01.720Z,0.94
2019-01-18T01:35:02.320Z,1.04
2019-01-18T01:35:02.914Z,0.98
2019-01-18T01:35:03.516Z,1.06
2019-01-18T01:35:05.095Z,1.01
2019-01-18T01:35:59.115Z,0.98
2019-01-18T01:35:59.688Z,1.00
2019-01-18T01:36:00.292Z,1.07
2019-01-18T01:36:00.889Z,1.06
2019-01-18T01:36:01.488Z,0.98
2019-01-18T01:36:02.089Z,0.98
2019-01-18T01:36:02.688Z,1.06
2019-01-18T01:36:03.293Z,1.00
2019-01-18T01:36:56.769Z,0.97
2019-01-18T01:36:57.341Z,0.98
2019-01-18T01:36:57.942Z,1.03
2019-01-18T01:36:58.540Z,1.08
2019-01-18T01:36:59.140Z,1.03
2019-01-18T01:36:59.740Z,1.01
2019-01-18T01:37:00.339Z,1.06
2019-01-18T01:37:00.939Z,1.03
2019-01-18T01:37:55.454Z,0.94
2019-01-18T01:37:56.018Z,1.03
2019-01-18T01:37:56.616Z,0.94
2019-01-18T01:37:57.216Z,0.97
2019-01-18T01:37:57.818Z,0.98
2019-01-18T01:37:58.414Z,1.03
2019-01-18T01:37:59.067Z,1.00
2019-01-18T01:37:59.614Z,1.03
2019-01-18T01:38:53.096Z,1.03
2019-01-18T01:38:53.667Z,1.01
2019-01-18T01:38:54.268Z,0.97
2019-01-18T01:38:54.867Z,0.98
2019-01-18T01:38:55.467Z,0.97
2019-01-18T01:38:56.068Z,1.03
2019-01-18T01:38:56.667Z,0.96
2019-01-18T01:38:57.266Z,0.96
2019-01-18T01:39:50.778Z,0.94
2019-01-18T01:39:51.319Z,0.96
2019-01-18T01:39:51.920Z,1.01
2019-01-18T01:39:52.521Z,0.97
2019-01-18T01:39:53.121Z,0.94
2019-01-18T01:39:53.719Z,0.96
2019-01-18T01:39:54.318Z,0.96
2019-01-18T01:39:54.920Z,0.98
2019-01-18T01:40:48.398Z,0.97
2019-01-18T01:40:48.971Z,0.92
2019-01-18T01:40:49.572Z,0.96
2019-01-18T01:40:50.170Z,0.92
2019-01-18T01:40:50.770Z,0.97
2019-01-18T01:40:51.370Z,0.94
2019-01-18T01:40:51.970Z,0.94
2019-01-18T01:40:52.571Z,0.97
2019-01-18T01:41:47.075Z,0.97
2019-01-18T01:41:47.658Z,0.97
2019-01-18T01:41:48.247Z,0.92
2019-01-18T01:41:48.846Z,0.96
2019-01-18T01:41:49.445Z,0.94
2019-01-18T01:41:50.046Z,0.94
2019-01-18T01:41:50.651Z,0.92
2019-01-18T01:41:51.245Z,1.00
2019-01-18T01:42:45.750Z,0.97
2019-01-18T01:42:46.322Z,0.97
2019-01-18T01:42:46.924Z,0.98
2019-01-18T01:42:47.522Z,1.00
2019-01-18T01:42:48.121Z,1.00
2019-01-18T01:42:48.721Z,0.92
2019-01-18T01:42:49.321Z,0.96
2019-01-18T01:42:49.920Z,1.00
2019-01-18T01:43:44.425Z,0.92
2019-01-18T01:43:45.000Z,0.92
2019-01-18T01:43:45.605Z,0.83
2019-01-18T01:43:46.198Z,0.88
2019-01-18T01:43:46.803Z,0.92
2019-01-18T01:43:47.397Z,0.94
2019-01-18T01:43:47.997Z,0.92
2019-01-18T01:43:48.596Z,0.86
2019-01-18T01:44:43.099Z,0.86
2019-01-18T01:44:43.674Z,0.90
2019-01-18T01:44:44.274Z,0.88
2019-01-18T01:44:44.873Z,0.90
2019-01-18T01:44:45.475Z,0.92
2019-01-18T01:44:46.072Z,0.92
2019-01-18T01:44:46.673Z,0.88
2019-01-18T01:44:47.273Z,0.89
2019-01-18T01:45:40.756Z,0.88
2019-01-18T01:45:41.332Z,0.90
2019-01-18T01:45:41.926Z,0.92
2019-01-18T01:45:42.526Z,0.90
2019-01-18T01:45:43.127Z,0.92
2019-01-18T01:45:43.726Z,0.90
2019-01-18T01:45:44.325Z,0.90
2019-01-18T01:45:44.925Z,0.89
2019-01-18T01:46:38.405Z,0.88
2019-01-18T01:46:38.978Z,0.92
2019-01-18T01:46:39.581Z,0.88
2019-01-18T01:46:40.176Z,0.90
2019-01-18T01:46:40.776Z,0.92
2019-01-18T01:46:41.377Z,0.83
2019-01-18T01:46:41.976Z,0.79
2019-01-18T01:46:42.578Z,0.86
2019-01-18T01:47:37.079Z,0.83
2019-01-18T01:47:37.652Z,0.82
2019-01-18T01:47:38.251Z,0.85
2019-01-18T01:47:38.851Z,0.80
2019-01-18T01:47:39.452Z,0.90
2019-01-18T01:47:40.051Z,0.90
2019-01-18T01:47:40.653Z,0.89
2019-01-18T01:47:41.254Z,0.85
2019-01-18T01:48:50.308Z,0.79
2019-01-18T01:48:50.869Z,0.83
2019-01-18T01:48:51.468Z,0.80
2019-01-18T01:48:52.071Z,0.86
2019-01-18T01:48:52.671Z,0.88
2019-01-18T01:48:53.268Z,0.86
2019-01-18T01:48:53.867Z,0.83
2019-01-18T01:48:54.471Z,0.83
2019-01-18T01:48:55.067Z,0.85
2019-01-18T01:48:55.668Z,0.82
2019-01-18T01:48:56.267Z,0.89
2019-01-18T01:48:56.867Z,0.82
2019-01-18T01:48:57.467Z,0.88
2019-01-18T01:48:58.066Z,0.86
2019-01-18T01:48:58.669Z,0.86
2019-01-18T01:48:59.266Z,0.85
2019-01-18T01:49:59.333Z,0.86
2019-01-18T01:49:59.889Z,0.89
2019-01-18T01:50:00.490Z,0.79
2019-01-18T01:50:01.095Z,0.83
2019-01-18T01:50:01.686Z,0.89
2019-01-18T01:50:02.286Z,0.85
2019-01-18T01:50:02.887Z,0.83
2019-01-18T01:50:03.487Z,0.80
2019-01-18T01:50:04.085Z,0.83
2019-01-18T01:50:04.685Z,0.83
2019-01-18T01:50:05.285Z,0.82
2019-01-18T01:50:05.901Z,0.83
2019-01-18T01:50:06.484Z,0.82
2019-01-18T01:50:07.082Z,0.88
2019-01-18T01:50:07.682Z,0.80
2019-01-18T01:50:08.281Z,0.80
2019-01-18T01:51:26.763Z,0.75
2019-01-18T01:51:27.339Z,0.88
2019-01-18T01:51:27.935Z,0.83
2019-01-18T01:51:28.534Z,0.88
2019-01-18T01:51:29.134Z,0.80
2019-01-18T01:51:29.747Z,0.94
2019-01-18T01:51:30.335Z,0.90
2019-01-18T01:51:30.933Z,0.76
2019-01-18T01:51:31.533Z,0.83
2019-01-18T01:51:32.133Z,0.80
2019-01-18T01:51:32.732Z,0.72
2019-01-18T01:51:33.332Z,0.75
2019-01-18T01:51:33.932Z,0.85
2019-01-18T01:51:34.536Z,0.83
2019-01-18T01:51:35.131Z,0.83
2019-01-18T01:51:35.741Z,0.82
2019-01-18T01:51:36.333Z,0.72
2019-01-18T01:52:30.357Z,0.76
2019-01-18T01:52:30.929Z,0.78
2019-01-18T01:52:31.529Z,0.83
2019-01-18T01:52:32.129Z,0.89
2019-01-18T01:52:32.728Z,0.85
2019-01-18T01:52:33.333Z,0.82
2019-01-18T01:52:33.929Z,0.89
2019-01-18T01:52:34.528Z,0.79
2019-01-18T01:53:29.032Z,0.75
2019-01-18T01:53:29.604Z,0.82
2019-01-18T01:53:30.205Z,0.85
2019-01-18T01:53:30.803Z,0.79
2019-01-18T01:53:31.404Z,0.86
2019-01-18T01:53:32.005Z,0.82
2019-01-18T01:53:32.602Z,0.82
2019-01-18T01:53:33.204Z,0.79
2019-01-18T01:54:26.691Z,0.79
2019-01-18T01:54:27.255Z,0.82
2019-01-18T01:54:27.856Z,0.80
2019-01-18T01:54:28.456Z,0.80
2019-01-18T01:54:29.056Z,0.72
2019-01-18T01:54:29.657Z,0.80
2019-01-18T01:54:30.256Z,0.78
2019-01-18T01:54:30.855Z,0.78
2019-01-18T01:55:24.336Z,0.78
2019-01-18T01:55:24.909Z,0.79
2019-01-18T01:55:25.507Z,0.82
2019-01-18T01:55:26.108Z,0.78
2019-01-18T01:55:26.707Z,0.78
2019-01-18T01:55:27.310Z,0.78
2019-01-18T01:55:27.907Z,0.78
2019-01-18T01:55:28.507Z,0.75
2019-01-18T01:56:21.987Z,0.76
2019-01-18T01:56:22.565Z,0.75
2019-01-18T01:56:23.160Z,0.79
2019-01-18T01:56:23.759Z,0.78
2019-01-18T01:56:24.359Z,0.76
2019-01-18T01:56:24.959Z,0.83
2019-01-18T01:56:25.560Z,0.80
2019-01-18T01:56:26.159Z,0.78
2019-01-18T01:57:19.638Z,0.78
2019-01-18T01:57:20.212Z,0.75
2019-01-18T01:57:20.811Z,0.72
2019-01-18T01:57:21.413Z,0.76
2019-01-18T01:57:22.012Z,0.76
2019-01-18T01:57:22.612Z,0.75
2019-01-18T01:57:23.211Z,0.79
2019-01-18T01:57:23.812Z,0.83
2019-01-18T01:58:17.290Z,0.71
2019-01-18T01:58:17.864Z,0.79
2019-01-18T01:58:18.463Z,0.82
2019-01-18T01:58:19.067Z,0.70
2019-01-18T01:58:19.667Z,0.80
2019-01-18T01:58:20.263Z,0.68
2019-01-18T01:58:20.862Z,0.78
2019-01-18T01:58:21.462Z,0.80
2019-01-18T01:59:15.975Z,0.78
2019-01-18T01:59:16.539Z,0.80
2019-01-18T01:59:17.138Z,0.85
2019-01-18T01:59:17.738Z,0.76
2019-01-18T01:59:18.337Z,0.72
2019-01-18T01:59:18.937Z,0.82
2019-01-18T01:59:19.539Z,0.82
2019-01-18T01:59:20.138Z,0.80
2019-01-18T02:00:13.617Z,0.70
2019-01-18T02:00:14.190Z,0.70
2019-01-18T02:00:14.791Z,0.72
2019-01-18T02:00:15.390Z,0.75
2019-01-18T02:00:15.991Z,0.76
2019-01-18T02:00:16.590Z,0.70
2019-01-18T02:00:17.189Z,0.70
2019-01-18T02:00:17.792Z,0.64
2019-01-18T02:01:12.296Z,0.70
2019-01-18T02:01:12.866Z,0.75
2019-01-18T02:01:13.469Z,0.72
2019-01-18T02:01:14.071Z,0.78
2019-01-18T02:01:14.666Z,0.72
2019-01-18T02:01:15.267Z,0.64
2019-01-18T02:01:15.865Z,0.71
2019-01-18T02:01:16.465Z,0.67
2019-01-18T02:02:09.947Z,0.67
2019-01-18T02:02:10.520Z,0.68
2019-01-18T02:02:11.121Z,0.71
2019-01-18T02:02:11.717Z,0.68
2019-01-18T02:02:12.318Z,0.65
2019-01-18T02:02:12.918Z,0.67
2019-01-18T02:02:13.516Z,0.68
2019-01-18T02:02:14.117Z,0.70
2019-01-18T02:03:08.623Z,0.68